createdAt,value
2023-05-11T00:02:27.506Z,96133.00
2023-05-11T00:05:00.343Z,96124.53
2023-05-11T00:07:33.050Z,96136.03
2023-05-11T00:10:07.854Z,96121.84
2023-05-11T00:12:40.604Z,96122.19
2023-05-11T00:15:13.386Z,96122.19
2023-05-11T00:17:46.535Z,96118.72
2023-05-11T00:20:21.525Z,96114.13
2023-05-11T00:22:54.259Z,96113.78
2023-05-11T00:25:28.368Z,96111.44
2023-05-11T00:28:01.074Z,96106.84
2023-05-11T00:30:33.790Z,96114.56
2023-05-11T00:33:06.794Z,96115.69
2023-05-11T00:35:39.645Z,96106.84
2023-05-11T00:38:12.458Z,96109.09
2023-05-11T00:40:46.639Z,96101.81
2023-05-11T00:43:19.307Z,96096.81
2023-05-11T00:45:52.516Z,96102.19
2023-05-11T00:48:25.436Z,96106.41
2023-05-11T00:50:59.651Z,96099.84
2023-05-11T00:53:32.543Z,96094.13
2023-05-11T00:56:07.832Z,96103.31
2023-05-11T00:58:40.509Z,96094.13
2023-05-11T01:01:15.022Z,96092.22
2023-05-11T01:03:48.566Z,96100.69
2023-05-11T01:06:29.038Z,96093.06
2023-05-11T01:09:04.800Z,96097.66
2023-05-11T01:11:43.893Z,96099.63
2023-05-11T01:14:18.084Z,96102.75
2023-05-11T01:16:56.375Z,96108.88
2023-05-11T01:19:36.310Z,96108.97
2023-05-11T01:22:15.104Z,96099.78
2023-05-11T01:24:56.019Z,96096.75
2023-05-11T01:27:41.681Z,96100.25
2023-05-11T01:30:25.805Z,96104.16
2023-05-11T01:33:00.821Z,96100.78
2023-05-11T01:35:35.215Z,96105.03
2023-05-11T01:38:12.570Z,96102.72
2023-05-11T01:40:45.777Z,96098.91
2023-05-11T01:43:21.957Z,96095.88
2023-05-11T01:46:00.067Z,96093.19
2023-05-11T01:48:35.093Z,96086.69
2023-05-11T01:51:08.838Z,96098.22
2023-05-11T01:53:42.255Z,96097.09
2023-05-11T01:56:15.804Z,96095.19
2023-05-11T01:58:49.391Z,96097.09
2023-05-11T02:01:24.267Z,96099.00
2023-05-11T02:03:57.495Z,96093.63
2023-05-11T02:06:30.521Z,96089.38
2023-05-11T02:09:04.086Z,96093.63
2023-05-11T02:11:38.754Z,96100.56
2023-05-11T02:14:12.717Z,96091.28
2023-05-11T02:16:47.761Z,96089.38
2023-05-11T02:19:21.488Z,96091.28
2023-05-11T02:21:54.490Z,96095.09
2023-05-11T02:24:28.523Z,96089.28
2023-05-11T02:27:01.269Z,96090.84
2023-05-11T02:29:34.085Z,96098.47
2023-05-11T02:32:10.288Z,96090.41
2023-05-11T02:34:44.215Z,96093.09
2023-05-11T02:37:19.542Z,96093.09
2023-05-11T02:39:54.756Z,96089.63
2023-05-11T02:42:28.880Z,96086.56
2023-05-11T02:45:02.666Z,96085.41
2023-05-11T02:47:40.384Z,96090.41
2023-05-11T02:50:13.863Z,96083.50
2023-05-11T02:52:48.469Z,96085.81
2023-05-11T02:55:22.450Z,96079.66
2023-05-11T02:57:55.247Z,96082.34
2023-05-11T03:00:28.154Z,96076.63
2023-05-11T03:03:02.309Z,96072.03
2023-05-11T03:05:35.369Z,96073.16
2023-05-11T03:08:08.284Z,96073.16
2023-05-11T03:10:41.245Z,96077.41
2023-05-11T03:13:14.181Z,96072.81
2023-05-11T03:15:47.491Z,96078.19
2023-05-11T03:18:22.328Z,96081.66
2023-05-11T03:20:55.462Z,96075.16
2023-05-11T03:23:29.284Z,96063.28
2023-05-11T03:26:02.722Z,96060.22
2023-05-11T03:28:36.809Z,96057.53
2023-05-11T03:31:09.857Z,96064.47
2023-05-11T03:33:44.065Z,96067.16
2023-05-11T03:36:17.074Z,96060.22
2023-05-11T03:38:49.894Z,96065.59
2023-05-11T03:41:22.813Z,96067.91
2023-05-11T03:43:57.468Z,96069.47
2023-05-11T03:46:30.972Z,96066.00
2023-05-11T03:49:05.953Z,96054.47
2023-05-11T03:51:39.330Z,96060.63
2023-05-11T03:54:12.181Z,96059.16
2023-05-11T03:56:44.913Z,96051.06
2023-05-11T03:59:17.786Z,96051.06
2023-05-11T04:01:53.195Z,96048.38
2023-05-11T04:04:31.108Z,96045.28
2023-05-11T04:07:03.986Z,96050.66
2023-05-11T04:09:36.688Z,96047.97
2023-05-11T04:12:09.658Z,96057.94
2023-05-11T04:14:42.345Z,96054.47
2023-05-11T04:17:15.008Z,96047.56
2023-05-11T04:19:49.048Z,96045.22
2023-05-11T04:22:21.702Z,96043.31
2023-05-11T04:24:54.362Z,96040.63
2023-05-11T04:27:27.019Z,96036.81
2023-05-11T04:29:59.722Z,96040.28
2023-05-11T04:32:32.544Z,96038.34
2023-05-11T04:35:07.051Z,96038.34
2023-05-11T04:37:40.054Z,96035.66
2023-05-11T04:40:13.178Z,96045.28
2023-05-11T04:42:46.170Z,96043.38
2023-05-11T04:45:18.900Z,96046.06
2023-05-11T04:47:51.718Z,96049.94
2023-05-11T04:50:25.921Z,96049.59
2023-05-11T04:52:58.624Z,96046.56
2023-05-11T04:55:31.705Z,96055.03
2023-05-11T04:58:04.491Z,96047.38
2023-05-11T05:00:37.600Z,96052.06
2023-05-11T05:03:10.348Z,96043.25
2023-05-11T05:05:44.452Z,96049.06
2023-05-11T05:08:17.746Z,96053.72
2023-05-11T05:10:50.472Z,96049.56
2023-05-11T05:13:23.184Z,96058.81
2023-05-11T05:15:55.815Z,96051.94
2023-05-11T05:18:28.566Z,96058.19
2023-05-11T05:21:03.150Z,96055.53
2023-05-11T05:23:35.826Z,96059.84
2023-05-11T05:26:08.485Z,96059.09
2023-05-11T05:28:41.226Z,96061.91
2023-05-11T05:31:13.988Z,96058.50
2023-05-11T05:33:46.743Z,96063.94
2023-05-11T05:36:20.770Z,96064.38
2023-05-11T05:38:53.622Z,96056.75
2023-05-11T05:41:27.801Z,96064.13
2023-05-11T05:44:00.818Z,96066.91
2023-05-11T05:46:33.816Z,96066.59
2023-05-11T05:49:06.904Z,96063.59
2023-05-11T05:51:41.056Z,96063.63
2023-05-11T05:54:14.192Z,96066.81
2023-05-11T05:56:47.657Z,96062.66
2023-05-11T05:59:23.526Z,96064.69
2023-05-11T06:01:56.291Z,96065.16
2023-05-11T06:04:29.136Z,96068.72
2023-05-11T06:07:03.366Z,96071.16
2023-05-11T06:09:39.048Z,96072.81
2023-05-11T06:12:11.884Z,96070.63
2023-05-11T06:14:44.820Z,96070.34
2023-05-11T06:17:17.669Z,96061.66
2023-05-11T06:19:50.559Z,96064.06
2023-05-11T06:22:25.011Z,96061.88
2023-05-11T06:24:58.254Z,96063.13
2023-05-11T06:27:31.006Z,96055.91
2023-05-11T06:30:03.745Z,96060.66
2023-05-11T06:32:36.458Z,96054.94
2023-05-11T06:35:09.742Z,96056.22
2023-05-11T06:37:43.834Z,96058.22
2023-05-11T06:40:16.898Z,96064.09
2023-05-11T06:42:49.781Z,96056.84
2023-05-11T06:45:22.583Z,96059.97
2023-05-11T06:47:55.369Z,96055.03
2023-05-11T06:50:28.347Z,96046.16
2023-05-11T06:53:02.499Z,96052.38
2023-05-11T06:55:35.459Z,96050.84
2023-05-11T06:58:08.272Z,96045.53
2023-05-11T07:00:40.933Z,96039.38
2023-05-11T07:03:13.704Z,96044.09
2023-05-11T07:05:46.449Z,96042.59
2023-05-11T07:08:20.598Z,96051.53
2023-05-11T07:10:53.397Z,96044.25
2023-05-11T07:13:26.068Z,96051.28
2023-05-11T07:15:58.748Z,96040.16
2023-05-11T07:18:31.741Z,96048.72
2023-05-11T07:21:04.777Z,96062.66
2023-05-11T07:23:38.793Z,96053.44
2023-05-11T07:26:11.660Z,96048.84
2023-05-11T07:28:44.372Z,96049.25
2023-05-11T07:31:17.118Z,96053.50
2023-05-11T07:33:49.910Z,96063.19
2023-05-11T07:36:22.617Z,96059.72
2023-05-11T07:38:57.850Z,96052.41
2023-05-11T07:41:30.984Z,96050.06
2023-05-11T07:44:03.678Z,96051.25
2023-05-11T07:46:36.507Z,96040.44
2023-05-11T07:49:17.055Z,96042.34
2023-05-11T07:51:53.745Z,96050.50
2023-05-11T07:54:28.264Z,96042.75
2023-05-11T07:57:00.969Z,96042.34
2023-05-11T07:59:33.682Z,96044.66
2023-05-11T08:02:06.784Z,96045.81
2023-05-11T08:04:39.542Z,96040.00
2023-05-11T08:07:12.278Z,96040.38
2023-05-11T08:09:46.484Z,96037.25
2023-05-11T08:12:19.156Z,96045.41
2023-05-11T08:14:51.783Z,96044.22
2023-05-11T08:17:24.437Z,96032.97
2023-05-11T08:19:57.412Z,96043.81
2023-05-11T08:22:30.253Z,96035.63
2023-05-11T08:25:05.640Z,96026.31
2023-05-11T08:27:38.567Z,96033.25
2023-05-11T08:30:12.167Z,96022.34
2023-05-11T08:35:21.719Z,96030.75
2023-05-11T08:37:54.787Z,96017.13
2023-05-11T08:40:29.050Z,96015.09
2023-05-11T08:43:02.475Z,96011.53
2023-05-11T08:45:38.654Z,96017.28
2023-05-11T08:48:12.597Z,96013.00
2023-05-11T08:50:46.062Z,96014.50
2023-05-11T08:53:18.797Z,96011.78
2023-05-11T08:55:53.247Z,96006.34
2023-05-11T08:58:25.992Z,96009.84
2023-05-11T09:00:58.949Z,96003.31
2023-05-11T09:03:31.929Z,95998.31
2023-05-11T09:06:07.199Z,95997.97
2023-05-11T09:08:40.876Z,96002.66
2023-05-11T09:11:15.084Z,96001.13
2023-05-11T09:13:48.054Z,95997.66
2023-05-11T09:16:35.680Z,95998.03
2023-05-11T09:19:14.824Z,95994.91
2023-05-11T09:21:48.195Z,95996.41
2023-05-11T09:24:21.475Z,95999.84
2023-05-11T09:27:09.295Z,95995.50
2023-05-11T09:29:41.968Z,95990.03
2023-05-11T09:32:15.432Z,95988.03
2023-05-11T09:34:48.473Z,95989.13
2023-05-11T09:37:21.141Z,95983.22
2023-05-11T09:40:25.107Z,95988.19
2023-05-11T09:42:49.680Z,95984.13
2023-05-11T09:45:41.012Z,95975.81
2023-05-11T09:48:26.177Z,95978.41
2023-05-11T09:51:03.753Z,95980.91
2023-05-11T09:53:43.471Z,95975.22
2023-05-11T09:56:16.705Z,95972.25
2023-05-11T09:58:51.704Z,95971.22
2023-05-11T10:01:32.454Z,95973.28
2023-05-11T10:04:22.206Z,95973.03
2023-05-11T10:06:56.577Z,95980.22
2023-05-11T10:09:29.224Z,95979.69
2023-05-11T10:12:02.672Z,95976.88
2023-05-11T10:14:37.048Z,95977.66
2023-05-11T10:17:11.976Z,95975.47
2023-05-11T10:19:44.766Z,95972.50
2023-05-11T10:22:17.788Z,95978.97
2023-05-11T10:24:51.275Z,95986.53
2023-05-11T10:27:24.015Z,95980.66
2023-05-11T10:29:59.390Z,95976.69
2023-05-11T10:32:32.969Z,95973.13
2023-05-11T10:35:06.469Z,95980.47
2023-05-11T10:37:40.033Z,95974.94
2023-05-11T10:40:12.867Z,95983.78
2023-05-11T10:43:05.843Z,95986.00
2023-05-11T10:45:47.828Z,95985.53
2023-05-11T10:48:35.738Z,95995.03
2023-05-11T10:51:27.099Z,95989.31
2023-05-11T10:54:08.300Z,95994.38
2023-05-11T10:57:07.381Z,95987.34
2023-05-11T11:00:09.756Z,95986.81
2023-05-11T11:02:45.534Z,95980.47
2023-05-11T11:05:33.512Z,95979.56
2023-05-11T11:08:08.973Z,95982.88
2023-05-11T11:10:44.049Z,95985.47
2023-05-11T11:13:18.472Z,95988.81
2023-05-11T11:16:09.953Z,95991.41
2023-05-11T11:18:44.063Z,95987.47
2023-05-11T11:21:37.261Z,95990.50
2023-05-11T11:24:10.332Z,95983.13
2023-05-11T11:26:50.580Z,95990.78
2023-05-11T11:29:23.476Z,95991.13
2023-05-11T11:31:56.242Z,95981.47
2023-05-11T11:34:39.913Z,95981.41
2023-05-11T11:37:13.623Z,95985.63
2023-05-11T11:39:50.015Z,95990.63
2023-05-11T11:42:34.956Z,95978.28
2023-05-11T11:45:35.265Z,95982.53
2023-05-11T11:48:15.601Z,95985.22
2023-05-11T11:50:50.725Z,95979.44
2023-05-11T11:53:44.247Z,95979.44
2023-05-11T11:56:35.548Z,95979.84
2023-05-11T11:59:12.050Z,95980.63
2023-05-11T12:01:46.165Z,95983.75
2023-05-11T12:04:25.222Z,95985.69
2023-05-11T12:06:59.870Z,95980.69
2023-05-11T12:09:32.740Z,95977.28
2023-05-11T12:12:06.785Z,95979.97
2023-05-11T12:14:40.867Z,95978.09
2023-05-11T12:17:16.580Z,95965.41
2023-05-11T12:19:49.270Z,95970.06
2023-05-11T12:22:27.049Z,95972.00
2023-05-11T12:25:00.617Z,95963.16
2023-05-11T12:27:33.443Z,95968.56
2023-05-11T12:30:06.654Z,95964.78
2023-05-11T12:32:40.584Z,95962.13
2023-05-11T12:35:13.404Z,95964.09
2023-05-11T12:37:47.638Z,95964.94
2023-05-11T12:40:20.600Z,95961.53
2023-05-11T12:42:53.585Z,95967.78
2023-05-11T12:45:26.936Z,95971.34
2023-05-11T12:47:59.922Z,95967.16
2023-05-11T12:50:32.614Z,95960.69
2023-05-11T12:53:15.849Z,95960.78
2023-05-11T12:55:58.612Z,95954.66
2023-05-11T12:58:37.036Z,95958.19
2023-05-11T13:01:10.187Z,95948.63
2023-05-11T13:03:47.498Z,95952.91
2023-05-11T13:06:21.680Z,95947.50
2023-05-11T13:08:55.857Z,95949.09
2023-05-11T13:11:28.902Z,95945.63
2023-05-11T13:14:16.416Z,95942.13
2023-05-11T13:16:54.643Z,95941.38
2023-05-11T13:19:31.247Z,95934.41
2023-05-11T13:22:04.440Z,95933.66
2023-05-11T13:24:38.571Z,95927.41
2023-05-11T13:27:11.278Z,95932.03
2023-05-11T13:29:44.099Z,95925.03
2023-05-11T13:32:16.909Z,95923.81
2023-05-11T13:34:49.787Z,95924.53
2023-05-11T13:37:22.467Z,95928.78
2023-05-11T13:39:56.582Z,95922.16
2023-05-11T13:42:29.789Z,95915.91
2023-05-11T13:45:02.448Z,95917.78
2023-05-11T13:47:35.994Z,95916.97
2023-05-11T13:50:09.414Z,95915.75
2023-05-11T13:52:42.358Z,95913.34
2023-05-11T13:55:16.796Z,95901.69
2023-05-11T13:57:49.786Z,95905.88
2023-05-11T14:00:22.759Z,95911.66
2023-05-11T14:02:56.268Z,95901.16
2023-05-11T14:05:29.467Z,95904.59
2023-05-11T14:08:02.191Z,95903.03
2023-05-11T14:10:37.913Z,95899.53
2023-05-11T14:13:10.681Z,95897.56
2023-05-11T14:15:43.341Z,95887.00
2023-05-11T14:18:16.120Z,95893.19
2023-05-11T14:20:49.346Z,95890.81
2023-05-11T14:23:22.015Z,95890.75
2023-05-11T14:25:56.844Z,95881.00
2023-05-11T14:28:29.565Z,95885.97
2023-05-11T14:31:02.831Z,95884.38
2023-05-11T14:33:35.787Z,95882.00
2023-05-11T14:36:09.138Z,95880.44
2023-05-11T14:38:42.066Z,95876.53
2023-05-11T14:41:16.381Z,95876.94
2023-05-11T14:43:49.578Z,95871.53
2023-05-11T14:46:23.427Z,95873.13
2023-05-11T14:48:57.794Z,95873.94
2023-05-11T14:51:30.468Z,95875.16
2023-05-11T14:54:03.164Z,95873.25
2023-05-11T14:56:37.655Z,95874.47
2023-05-11T14:59:10.341Z,95875.25
2023-05-11T15:01:43.376Z,95872.97
2023-05-11T15:04:16.419Z,95867.97
2023-05-11T15:06:49.647Z,95866.88
2023-05-11T15:09:24.003Z,95880.94
2023-05-11T15:11:59.902Z,95878.75
2023-05-11T15:14:32.546Z,95878.09
2023-05-11T15:17:05.378Z,95880.66
2023-05-11T15:19:38.076Z,95886.66
2023-05-11T15:22:11.129Z,95886.03
2023-05-11T15:24:43.780Z,95894.19
2023-05-11T15:27:17.940Z,95892.66
2023-05-11T15:29:50.826Z,95893.72
2023-05-11T15:32:23.588Z,95892.44
2023-05-11T15:34:59.818Z,95890.38
2023-05-11T15:37:33.273Z,95894.03
2023-05-11T15:40:06.595Z,95894.22
2023-05-11T15:42:41.122Z,95887.88
2023-05-11T15:45:13.884Z,95893.47
2023-05-11T15:47:46.853Z,95885.22
2023-05-11T15:50:20.067Z,95890.84
2023-05-11T15:52:54.478Z,95889.25
2023-05-11T15:55:27.157Z,95891.09
2023-05-11T15:58:01.334Z,95887.97
2023-05-11T16:00:34.122Z,95890.25
2023-05-11T16:03:07.963Z,95900.66
2023-05-11T16:05:40.765Z,95898.38
2023-05-11T16:08:13.572Z,95888.00
2023-05-11T16:10:46.357Z,95896.53
2023-05-11T16:13:20.405Z,95885.00
2023-05-11T16:15:53.269Z,95899.72
2023-05-11T16:18:26.094Z,95893.56
2023-05-11T16:20:58.920Z,95895.19
2023-05-11T16:23:31.634Z,95895.22
2023-05-11T16:26:04.372Z,95896.03
2023-05-11T16:28:38.676Z,95896.47
2023-05-11T16:31:11.425Z,95893.09
2023-05-11T16:33:44.546Z,95895.06
2023-05-11T16:36:17.641Z,95885.91
2023-05-11T16:38:50.518Z,95894.03
2023-05-11T16:41:25.148Z,95889.50
2023-05-11T16:43:59.322Z,95891.91
2023-05-11T16:46:32.388Z,95884.25
2023-05-11T16:49:05.166Z,95881.59
2023-05-11T16:51:37.886Z,95892.84
2023-05-11T16:54:11.652Z,95885.91
2023-05-11T16:56:44.424Z,95885.56
2023-05-11T16:59:18.607Z,95881.34
2023-05-11T17:01:51.443Z,95892.50
2023-05-11T17:04:24.137Z,95886.75
2023-05-11T17:06:57.265Z,95886.75
2023-05-11T17:09:30.126Z,95889.81
2023-05-11T17:12:08.729Z,95891.72
2023-05-11T17:14:42.879Z,95891.34
2023-05-11T17:17:15.515Z,95890.94
2023-05-11T17:19:48.463Z,95890.91
2023-05-11T17:22:21.362Z,95897.09
2023-05-11T17:24:54.068Z,95892.06
2023-05-11T17:27:26.736Z,95895.09
2023-05-11T17:30:01.102Z,95887.38
2023-05-11T17:32:34.324Z,95892.72
2023-05-11T17:35:08.107Z,95896.97
2023-05-11T17:37:40.824Z,95888.84
2023-05-11T17:40:14.041Z,95893.81
2023-05-11T17:42:47.070Z,95889.97
2023-05-11T17:45:21.572Z,95890.34
2023-05-11T17:47:54.923Z,95890.31
2023-05-11T17:50:27.972Z,95894.16
2023-05-11T17:53:00.649Z,95894.13
2023-05-11T17:55:33.739Z,95890.25
2023-05-11T17:58:06.517Z,95894.47
2023-05-11T18:00:41.118Z,95896.38
2023-05-11T18:03:14.175Z,95895.59
2023-05-11T18:05:48.877Z,95895.56
2023-05-11T18:08:22.136Z,95900.16
2023-05-11T18:10:55.116Z,95902.06
2023-05-11T18:13:28.796Z,95901.66
2023-05-11T18:16:03.031Z,95909.75
2023-05-11T18:18:36.164Z,95910.06
2023-05-11T18:21:10.778Z,95911.97
2023-05-11T18:23:43.445Z,95904.25
2023-05-11T18:26:17.446Z,95906.13
2023-05-11T18:28:50.225Z,95906.47
2023-05-11T18:31:24.790Z,95906.06
2023-05-11T18:33:57.757Z,95904.44
2023-05-11T18:36:30.857Z,95910.56
2023-05-11T18:39:04.826Z,95906.66
2023-05-11T18:41:37.538Z,95906.56
2023-05-11T18:44:10.204Z,95903.44
2023-05-11T18:46:44.735Z,95901.44
2023-05-11T18:49:17.594Z,95908.69
2023-05-11T18:51:50.448Z,95906.34
2023-05-11T18:54:23.139Z,95904.75
2023-05-11T18:56:56.132Z,95913.53
2023-05-11T18:59:28.842Z,95913.50
2023-05-11T19:02:03.480Z,95920.75
2023-05-11T19:04:36.217Z,95917.59
2023-05-11T19:07:08.923Z,95921.00
2023-05-11T19:09:41.733Z,95920.22
2023-05-11T19:12:14.622Z,95919.38
2023-05-11T19:14:47.591Z,95927.03
2023-05-11T19:17:21.845Z,95930.81
2023-05-11T19:19:56.386Z,95931.53
2023-05-11T19:22:29.110Z,95928.81
2023-05-11T19:25:02.129Z,95924.88
2023-05-11T19:27:36.859Z,95932.53
2023-05-11T19:30:10.371Z,95933.63
2023-05-11T19:32:44.872Z,95940.88
2023-05-11T19:35:18.368Z,95936.56
2023-05-11T19:37:51.089Z,95929.19
2023-05-11T19:43:01.068Z,95932.50
2023-05-11T19:45:34.097Z,95931.69
2023-05-11T19:48:08.829Z,95940.88
2023-05-11T19:50:41.634Z,95934.31
2023-05-11T19:53:14.346Z,95933.50
2023-05-11T19:55:48.258Z,95939.22
2023-05-11T19:58:21.320Z,95948.38
2023-05-11T20:00:54.910Z,95944.13
2023-05-11T20:03:29.371Z,95937.56
2023-05-11T20:06:02.499Z,95950.59
2023-05-11T20:08:35.176Z,95947.13
2023-05-11T20:11:08.002Z,95955.53
2023-05-11T20:13:41.187Z,95950.16
2023-05-11T20:16:13.898Z,95951.72
2023-05-11T20:18:48.291Z,95957.09
2023-05-11T20:21:21.090Z,95950.94
2023-05-11T20:23:53.840Z,95950.59
2023-05-11T20:26:26.846Z,95951.72
2023-05-11T20:28:59.587Z,95944.06
2023-05-11T20:31:32.829Z,95939.03
2023-05-11T20:34:07.357Z,95938.28
2023-05-11T20:36:40.395Z,95945.19
2023-05-11T20:39:13.189Z,95941.75
2023-05-11T20:41:45.864Z,95945.97
2023-05-11T20:44:18.870Z,95955.59
2023-05-11T20:46:51.573Z,95945.63
2023-05-11T20:49:38.387Z,95945.63
2023-05-11T20:52:11.846Z,95953.69
2023-05-11T20:54:44.900Z,95951.78
2023-05-11T20:57:17.669Z,95947.53
2023-05-11T21:02:26.362Z,95946.06
2023-05-11T21:05:02.423Z,95948.75
2023-05-11T21:07:35.414Z,95943.72
2023-05-11T21:10:08.810Z,95951.78
2023-05-11T21:12:41.529Z,95953.34
2023-05-11T21:15:14.238Z,95950.66
2023-05-11T21:17:46.924Z,95952.22
2023-05-11T21:20:21.185Z,95946.06
2023-05-11T21:22:53.949Z,95956.44
2023-05-11T21:25:26.702Z,95954.50
2023-05-11T21:28:00.892Z,95951.06
2023-05-11T21:30:33.831Z,95957.97
2023-05-11T21:33:06.973Z,95954.50
2023-05-11T21:35:41.232Z,95954.16
2023-05-11T21:38:15.310Z,95956.50
2023-05-11T21:40:51.408Z,95961.09
2023-05-11T21:43:24.269Z,95958.81
2023-05-11T21:45:57.087Z,95950.75
2023-05-11T21:48:30.117Z,95956.91
2023-05-11T21:51:04.165Z,95953.88
2023-05-11T21:53:37.310Z,95953.88
2023-05-11T21:56:10.393Z,95954.66
2023-05-11T21:58:43.115Z,95961.59
2023-05-11T22:01:15.876Z,95960.84
2023-05-11T22:03:48.681Z,95958.94
2023-05-11T22:06:22.962Z,95961.28
2023-05-11T22:08:55.638Z,95956.31
2023-05-11T22:11:28.287Z,95963.25
2023-05-11T22:14:00.896Z,95956.72
2023-05-11T22:16:33.672Z,95961.72
2023-05-11T22:19:06.930Z,95960.59
2023-05-11T22:21:41.392Z,95961.03
2023-05-11T22:24:14.503Z,95966.03
2023-05-11T22:26:47.324Z,95960.31
2023-05-11T22:29:20.042Z,95958.41
2023-05-11T22:31:52.789Z,95963.38
2023-05-11T22:34:25.539Z,95958.00
2023-05-11T22:37:00.251Z,95954.97
2023-05-11T22:39:33.258Z,95952.28
2023-05-11T22:42:06.187Z,95954.59
2023-05-11T22:44:38.862Z,95960.44
2023-05-11T22:47:12.200Z,95959.31
2023-05-11T22:49:45.025Z,95958.94
2023-05-11T22:52:19.191Z,95958.56
2023-05-11T22:54:54.592Z,95952.41
2023-05-11T22:57:27.840Z,95953.19
2023-05-11T23:00:00.506Z,95947.44
2023-05-11T23:02:36.094Z,95944.75
2023-05-11T23:05:09.427Z,95950.91
2023-05-11T23:07:43.541Z,95934.00
2023-05-11T23:10:16.927Z,95949.78
2023-05-11T23:12:49.847Z,95946.31
2023-05-11T23:15:22.539Z,95941.28
2023-05-11T23:17:55.341Z,95943.97
2023-05-11T23:20:28.372Z,95937.47
2023-05-11T23:23:02.722Z,95938.94
2023-05-11T23:25:35.413Z,95938.56
2023-05-11T23:28:11.547Z,95942.81
2023-05-11T23:30:46.044Z,95930.47
2023-05-11T23:33:18.959Z,95927.78
2023-05-11T23:35:51.730Z,95929.25
2023-05-11T23:38:27.827Z,95928.47
2023-05-11T23:41:00.687Z,95932.31
2023-05-11T23:43:33.520Z,95932.66
2023-05-11T23:46:06.269Z,95929.97
2023-05-11T23:48:39.030Z,95927.63
2023-05-11T23:51:12.033Z,95932.25
2023-05-11T23:53:46.677Z,95926.09
2023-05-11T23:56:19.408Z,95926.84
2023-05-11T23:58:52.249Z,95927.25
